sensor_id;sensor_type;location;lat;lon;timestamp;P1;durP1;ratioP1;P2;durP2;ratioP2
12129;SDS011;6128;59.340;18.040;2023-08-06T00:00:28;5.23;;;2.90;;
12129;SDS011;6128;59.340;18.040;2023-08-06T00:02:55;4.40;;;2.40;;
12129;SDS011;6128;59.340;18.040;2023-08-06T00:05:22;4.23;;;2.93;;
12129;SDS011;6128;59.340;18.040;2023-08-06T00:07:49;4.20;;;2.50;;
12129;SDS011;6128;59.340;18.040;2023-08-06T00:10:18;3.97;;;2.63;;
12129;SDS011;6128;59.340;18.040;2023-08-06T00:12:45;4.83;;;3.00;;
12129;SDS011;6128;59.340;18.040;2023-08-06T00:15:13;4.20;;;2.83;;
12129;SDS011;6128;59.340;18.040;2023-08-06T00:17:40;4.77;;;3.03;;
12129;SDS011;6128;59.340;18.040;2023-08-06T00:20:07;6.43;;;3.53;;
12129;SDS011;6128;59.340;18.040;2023-08-06T00:22:37;4.33;;;2.80;;
12129;SDS011;6128;59.340;18.040;2023-08-06T00:25:05;5.83;;;3.13;;
12129;SDS011;6128;59.340;18.040;2023-08-06T00:27:37;3.30;;;3.00;;
12129;SDS011;6128;59.340;18.040;2023-08-06T00:30:08;8.57;;;3.17;;
12129;SDS011;6128;59.340;18.040;2023-08-06T00:32:47;5.27;;;2.93;;
12129;SDS011;6128;59.340;18.040;2023-08-06T00:35:17;13.80;;;4.57;;
12129;SDS011;6128;59.340;18.040;2023-08-06T00:37:45;7.27;;;3.73;;
12129;SDS011;6128;59.340;18.040;2023-08-06T00:40:12;10.93;;;4.43;;
12129;SDS011;6128;59.340;18.040;2023-08-06T00:42:41;9.73;;;3.77;;
12129;SDS011;6128;59.340;18.040;2023-08-06T00:45:13;7.23;;;3.43;;
12129;SDS011;6128;59.340;18.040;2023-08-06T00:47:40;5.17;;;3.43;;
12129;SDS011;6128;59.340;18.040;2023-08-06T00:50:08;3.67;;;3.20;;
12129;SDS011;6128;59.340;18.040;2023-08-06T00:52:35;4.30;;;2.87;;
12129;SDS011;6128;59.340;18.040;2023-08-06T00:55:03;2.93;;;2.60;;
12129;SDS011;6128;59.340;18.040;2023-08-06T00:57:32;3.70;;;2.97;;
12129;SDS011;6128;59.340;18.040;2023-08-06T01:00:00;5.07;;;3.27;;
12129;SDS011;6128;59.340;18.040;2023-08-06T01:02:29;4.10;;;3.27;;
12129;SDS011;6128;59.340;18.040;2023-08-06T01:04:56;5.07;;;3.50;;
12129;SDS011;6128;59.340;18.040;2023-08-06T01:07:41;6.03;;;3.27;;
12129;SDS011;6128;59.340;18.040;2023-08-06T01:10:29;5.27;;;3.23;;
12129;SDS011;6128;59.340;18.040;2023-08-06T01:13:23;4.53;;;3.10;;
12129;SDS011;6128;59.340;18.040;2023-08-06T01:15:59;4.30;;;2.77;;
12129;SDS011;6128;59.340;18.040;2023-08-06T01:18:42;4.60;;;3.30;;
12129;SDS011;6128;59.340;18.040;2023-08-06T01:21:14;5.70;;;3.50;;
12129;SDS011;6128;59.340;18.040;2023-08-06T01:23:57;4.90;;;3.57;;
12129;SDS011;6128;59.340;18.040;2023-08-06T01:26:30;6.00;;;3.13;;
12129;SDS011;6128;59.340;18.040;2023-08-06T01:29:22;4.87;;;3.30;;
12129;SDS011;6128;59.340;18.040;2023-08-06T01:32:01;3.57;;;3.20;;
12129;SDS011;6128;59.340;18.040;2023-08-06T01:34:44;4.17;;;3.17;;
12129;SDS011;6128;59.340;18.040;2023-08-06T01:37:20;4.90;;;2.90;;
12129;SDS011;6128;59.340;18.040;2023-08-06T01:39:50;4.63;;;3.33;;
12129;SDS011;6128;59.340;18.040;2023-08-06T01:42:17;4.57;;;3.23;;
12129;SDS011;6128;59.340;18.040;2023-08-06T01:45:14;4.43;;;3.43;;
12129;SDS011;6128;59.340;18.040;2023-08-06T01:47:49;4.77;;;3.43;;
12129;SDS011;6128;59.340;18.040;2023-08-06T01:50:39;4.83;;;3.13;;
12129;SDS011;6128;59.340;18.040;2023-08-06T01:53:10;6.03;;;3.70;;
12129;SDS011;6128;59.340;18.040;2023-08-06T01:55:40;5.67;;;3.57;;
12129;SDS011;6128;59.340;18.040;2023-08-06T01:58:09;5.40;;;3.37;;
12129;SDS011;6128;59.340;18.040;2023-08-06T02:00:44;6.93;;;3.60;;
12129;SDS011;6128;59.340;18.040;2023-08-06T02:03:20;5.20;;;3.33;;
12129;SDS011;6128;59.340;18.040;2023-08-06T02:05:52;4.50;;;3.60;;
12129;SDS011;6128;59.340;18.040;2023-08-06T02:08:22;3.80;;;3.37;;
12129;SDS011;6128;59.340;18.040;2023-08-06T02:11:00;4.33;;;3.83;;
12129;SDS011;6128;59.340;18.040;2023-08-06T02:13:59;4.23;;;3.70;;
12129;SDS011;6128;59.340;18.040;2023-08-06T02:16:32;4.77;;;3.60;;
12129;SDS011;6128;59.340;18.040;2023-08-06T02:18:59;4.73;;;3.70;;
12129;SDS011;6128;59.340;18.040;2023-08-06T02:21:26;5.47;;;4.07;;
12129;SDS011;6128;59.340;18.040;2023-08-06T02:23:55;4.83;;;3.57;;
12129;SDS011;6128;59.340;18.040;2023-08-06T02:26:22;4.83;;;3.40;;
12129;SDS011;6128;59.340;18.040;2023-08-06T02:28:50;5.27;;;3.50;;
12129;SDS011;6128;59.340;18.040;2023-08-06T02:31:17;4.63;;;3.60;;
12129;SDS011;6128;59.340;18.040;2023-08-06T02:33:46;4.70;;;3.00;;
12129;SDS011;6128;59.340;18.040;2023-08-06T02:36:13;4.57;;;3.53;;
12129;SDS011;6128;59.340;18.040;2023-08-06T02:38:40;6.97;;;3.40;;
12129;SDS011;6128;59.340;18.040;2023-08-06T02:41:09;4.77;;;3.70;;
12129;SDS011;6128;59.340;18.040;2023-08-06T02:43:36;6.60;;;3.50;;
12129;SDS011;6128;59.340;18.040;2023-08-06T02:46:03;3.53;;;3.23;;
12129;SDS011;6128;59.340;18.040;2023-08-06T02:48:31;4.97;;;3.60;;
12129;SDS011;6128;59.340;18.040;2023-08-06T02:50:58;6.43;;;3.93;;
12129;SDS011;6128;59.340;18.040;2023-08-06T02:53:25;5.40;;;3.50;;
12129;SDS011;6128;59.340;18.040;2023-08-06T02:55:53;4.83;;;3.30;;
12129;SDS011;6128;59.340;18.040;2023-08-06T02:58:22;3.53;;;3.23;;
12129;SDS011;6128;59.340;18.040;2023-08-06T03:01:02;4.07;;;2.90;;
12129;SDS011;6128;59.340;18.040;2023-08-06T03:03:32;3.40;;;3.10;;
12129;SDS011;6128;59.340;18.040;2023-08-06T03:06:00;3.60;;;2.87;;
12129;SDS011;6128;59.340;18.040;2023-08-06T03:08:28;4.00;;;3.10;;
12129;SDS011;6128;59.340;18.040;2023-08-06T03:10:55;4.23;;;3.10;;
12129;SDS011;6128;59.340;18.040;2023-08-06T03:13:24;5.67;;;3.90;;
12129;SDS011;6128;59.340;18.040;2023-08-06T03:15:52;5.13;;;3.40;;
12129;SDS011;6128;59.340;18.040;2023-08-06T03:18:20;4.37;;;3.07;;
12129;SDS011;6128;59.340;18.040;2023-08-06T03:20:47;3.70;;;3.37;;
12129;SDS011;6128;59.340;18.040;2023-08-06T03:23:15;4.03;;;3.40;;
12129;SDS011;6128;59.340;18.040;2023-08-06T03:25:42;4.57;;;3.43;;
12129;SDS011;6128;59.340;18.040;2023-08-06T03:28:09;6.03;;;3.30;;
12129;SDS011;6128;59.340;18.040;2023-08-06T03:30:38;3.37;;;3.10;;
12129;SDS011;6128;59.340;18.040;2023-08-06T03:33:05;5.33;;;3.63;;
12129;SDS011;6128;59.340;18.040;2023-08-06T03:35:32;4.77;;;3.53;;
12129;SDS011;6128;59.340;18.040;2023-08-06T03:37:59;5.20;;;3.43;;
12129;SDS011;6128;59.340;18.040;2023-08-06T03:40:26;3.87;;;3.23;;
12129;SDS011;6128;59.340;18.040;2023-08-06T03:42:54;4.97;;;3.50;;
12129;SDS011;6128;59.340;18.040;2023-08-06T03:45:21;3.73;;;3.27;;
12129;SDS011;6128;59.340;18.040;2023-08-06T03:47:49;3.43;;;3.13;;
12129;SDS011;6128;59.340;18.040;2023-08-06T03:50:16;3.47;;;3.17;;
12129;SDS011;6128;59.340;18.040;2023-08-06T03:52:43;4.37;;;3.30;;
12129;SDS011;6128;59.340;18.040;2023-08-06T03:55:10;3.80;;;3.10;;
12129;SDS011;6128;59.340;18.040;2023-08-06T03:57:37;4.57;;;3.73;;
12129;SDS011;6128;59.340;18.040;2023-08-06T04:00:05;4.03;;;3.37;;
12129;SDS011;6128;59.340;18.040;2023-08-06T04:02:33;4.10;;;3.00;;
12129;SDS011;6128;59.340;18.040;2023-08-06T04:05:02;4.07;;;3.60;;
12129;SDS011;6128;59.340;18.040;2023-08-06T04:07:30;4.43;;;3.50;;
12129;SDS011;6128;59.340;18.040;2023-08-06T04:09:58;5.93;;;3.93;;
12129;SDS011;6128;59.340;18.040;2023-08-06T04:12:26;5.47;;;3.50;;
12129;SDS011;6128;59.340;18.040;2023-08-06T04:14:53;4.67;;;3.50;;
12129;SDS011;6128;59.340;18.040;2023-08-06T04:17:20;4.63;;;3.40;;
12129;SDS011;6128;59.340;18.040;2023-08-06T04:19:49;4.37;;;3.60;;
12129;SDS011;6128;59.340;18.040;2023-08-06T04:22:18;5.47;;;3.53;;
12129;SDS011;6128;59.340;18.040;2023-08-06T04:24:46;4.23;;;3.50;;
12129;SDS011;6128;59.340;18.040;2023-08-06T04:27:14;3.90;;;3.53;;
12129;SDS011;6128;59.340;18.040;2023-08-06T04:29:42;3.93;;;3.30;;
12129;SDS011;6128;59.340;18.040;2023-08-06T04:32:09;5.50;;;3.60;;
12129;SDS011;6128;59.340;18.040;2023-08-06T04:34:37;3.67;;;3.33;;
12129;SDS011;6128;59.340;18.040;2023-08-06T04:37:04;3.70;;;3.40;;
12129;SDS011;6128;59.340;18.040;2023-08-06T04:39:33;4.83;;;3.33;;
12129;SDS011;6128;59.340;18.040;2023-08-06T04:42:00;4.23;;;3.43;;
12129;SDS011;6128;59.340;18.040;2023-08-06T04:44:27;4.57;;;3.20;;
12129;SDS011;6128;59.340;18.040;2023-08-06T04:46:54;5.17;;;3.37;;
12129;SDS011;6128;59.340;18.040;2023-08-06T04:49:21;4.47;;;3.53;;
12129;SDS011;6128;59.340;18.040;2023-08-06T04:51:49;3.43;;;3.13;;
12129;SDS011;6128;59.340;18.040;2023-08-06T04:54:16;3.60;;;3.30;;
12129;SDS011;6128;59.340;18.040;2023-08-06T04:56:44;4.97;;;3.20;;
12129;SDS011;6128;59.340;18.040;2023-08-06T04:59:11;3.70;;;3.23;;
12129;SDS011;6128;59.340;18.040;2023-08-06T05:01:38;3.47;;;3.13;;
12129;SDS011;6128;59.340;18.040;2023-08-06T05:04:06;5.37;;;3.43;;
12129;SDS011;6128;59.340;18.040;2023-08-06T05:06:33;4.83;;;3.60;;
12129;SDS011;6128;59.340;18.040;2023-08-06T05:09:00;4.13;;;3.07;;
12129;SDS011;6128;59.340;18.040;2023-08-06T05:11:27;6.33;;;3.60;;
12129;SDS011;6128;59.340;18.040;2023-08-06T05:13:56;3.37;;;2.80;;
12129;SDS011;6128;59.340;18.040;2023-08-06T05:16:23;4.47;;;2.87;;
12129;SDS011;6128;59.340;18.040;2023-08-06T05:18:50;3.43;;;3.13;;
12129;SDS011;6128;59.340;18.040;2023-08-06T05:21:17;5.30;;;3.40;;
12129;SDS011;6128;59.340;18.040;2023-08-06T05:23:44;3.60;;;3.20;;
12129;SDS011;6128;59.340;18.040;2023-08-06T05:26:12;4.50;;;3.50;;
12129;SDS011;6128;59.340;18.040;2023-08-06T05:28:41;2.90;;;2.70;;
12129;SDS011;6128;59.340;18.040;2023-08-06T05:31:09;4.07;;;2.97;;
12129;SDS011;6128;59.340;18.040;2023-08-06T05:33:36;3.83;;;2.63;;
12129;SDS011;6128;59.340;18.040;2023-08-06T05:36:04;3.33;;;3.03;;
12129;SDS011;6128;59.340;18.040;2023-08-06T05:38:31;4.03;;;3.27;;
12129;SDS011;6128;59.340;18.040;2023-08-06T05:40:58;3.23;;;2.93;;
12129;SDS011;6128;59.340;18.040;2023-08-06T05:43:25;3.40;;;3.10;;
12129;SDS011;6128;59.340;18.040;2023-08-06T05:45:52;3.77;;;3.00;;
12129;SDS011;6128;59.340;18.040;2023-08-06T05:48:21;4.37;;;3.30;;
12129;SDS011;6128;59.340;18.040;2023-08-06T05:50:49;3.43;;;2.50;;
12129;SDS011;6128;59.340;18.040;2023-08-06T05:53:17;3.23;;;2.63;;
12129;SDS011;6128;59.340;18.040;2023-08-06T05:55:44;3.53;;;2.40;;
12129;SDS011;6128;59.340;18.040;2023-08-06T05:58:12;2.57;;;2.37;;
12129;SDS011;6128;59.340;18.040;2023-08-06T06:00:39;3.47;;;2.60;;
12129;SDS011;6128;59.340;18.040;2023-08-06T06:03:06;4.73;;;2.07;;
12129;SDS011;6128;59.340;18.040;2023-08-06T06:05:34;4.37;;;2.40;;
12129;SDS011;6128;59.340;18.040;2023-08-06T06:08:03;2.73;;;2.20;;
12129;SDS011;6128;59.340;18.040;2023-08-06T06:10:30;5.00;;;2.10;;
12129;SDS011;6128;59.340;18.040;2023-08-06T06:12:57;3.33;;;1.90;;
12129;SDS011;6128;59.340;18.040;2023-08-06T06:15:24;4.30;;;1.90;;
12129;SDS011;6128;59.340;18.040;2023-08-06T06:17:52;2.53;;;1.77;;
12129;SDS011;6128;59.340;18.040;2023-08-06T06:20:19;5.33;;;2.10;;
12129;SDS011;6128;59.340;18.040;2023-08-06T06:22:47;1.70;;;1.60;;
12129;SDS011;6128;59.340;18.040;2023-08-06T06:25:14;4.00;;;2.10;;
12129;SDS011;6128;59.340;18.040;2023-08-06T06:27:41;3.00;;;2.00;;
12129;SDS011;6128;59.340;18.040;2023-08-06T06:30:09;3.33;;;2.00;;
12129;SDS011;6128;59.340;18.040;2023-08-06T06:32:37;2.17;;;1.70;;
12129;SDS011;6128;59.340;18.040;2023-08-06T06:35:05;4.53;;;2.00;;
12129;SDS011;6128;59.340;18.040;2023-08-06T06:37:32;1.87;;;1.77;;
12129;SDS011;6128;59.340;18.040;2023-08-06T06:40:01;2.47;;;1.70;;
12129;SDS011;6128;59.340;18.040;2023-08-06T06:42:28;3.87;;;2.20;;
12129;SDS011;6128;59.340;18.040;2023-08-06T06:44:55;1.50;;;1.37;;
12129;SDS011;6128;59.340;18.040;2023-08-06T06:47:22;2.53;;;1.90;;
12129;SDS011;6128;59.340;18.040;2023-08-06T06:49:50;2.20;;;1.93;;
12129;SDS011;6128;59.340;18.040;2023-08-06T06:52:17;2.70;;;1.33;;
12129;SDS011;6128;59.340;18.040;2023-08-06T06:54:44;2.80;;;1.60;;
12129;SDS011;6128;59.340;18.040;2023-08-06T06:57:12;1.60;;;1.30;;
12129;SDS011;6128;59.340;18.040;2023-08-06T06:59:39;2.10;;;1.60;;
12129;SDS011;6128;59.340;18.040;2023-08-06T07:02:06;2.78;;;1.63;;
12129;SDS011;6128;59.340;18.040;2023-08-06T07:04:33;3.22;;;1.60;;
12129;SDS011;6128;59.340;18.040;2023-08-06T07:06:59;2.38;;;1.83;;
12129;SDS011;6128;59.340;18.040;2023-08-06T07:09:26;2.33;;;1.55;;
12129;SDS011;6128;59.340;18.040;2023-08-06T07:11:54;2.17;;;1.52;;
12129;SDS011;6128;59.340;18.040;2023-08-06T07:14:22;1.77;;;1.50;;
12129;SDS011;6128;59.340;18.040;2023-08-06T07:16:50;1.63;;;1.35;;
12129;SDS011;6128;59.340;18.040;2023-08-06T07:19:17;2.90;;;1.58;;
12129;SDS011;6128;59.340;18.040;2023-08-06T07:21:44;2.05;;;1.67;;
12129;SDS011;6128;59.340;18.040;2023-08-06T07:24:11;2.97;;;1.67;;
12129;SDS011;6128;59.340;18.040;2023-08-06T07:26:38;4.40;;;1.75;;
12129;SDS011;6128;59.340;18.040;2023-08-06T07:29:05;2.63;;;1.70;;
12129;SDS011;6128;59.340;18.040;2023-08-06T07:31:34;2.87;;;1.40;;
12129;SDS011;6128;59.340;18.040;2023-08-06T07:34:01;2.33;;;1.63;;
12129;SDS011;6128;59.340;18.040;2023-08-06T07:36:28;2.15;;;1.60;;
12129;SDS011;6128;59.340;18.040;2023-08-06T07:38:56;3.08;;;1.67;;
12129;SDS011;6128;59.340;18.040;2023-08-06T07:41:23;1.77;;;1.50;;
12129;SDS011;6128;59.340;18.040;2023-08-06T07:43:50;2.65;;;1.80;;
12129;SDS011;6128;59.340;18.040;2023-08-06T07:46:17;2.33;;;1.65;;
12129;SDS011;6128;59.340;18.040;2023-08-06T07:48:45;3.15;;;1.80;;
12129;SDS011;6128;59.340;18.040;2023-08-06T07:51:12;3.05;;;2.03;;
12129;SDS011;6128;59.340;18.040;2023-08-06T07:53:39;2.35;;;1.80;;
12129;SDS011;6128;59.340;18.040;2023-08-06T07:56:06;2.20;;;1.50;;
12129;SDS011;6128;59.340;18.040;2023-08-06T07:58:33;3.55;;;1.80;;
12129;SDS011;6128;59.340;18.040;2023-08-06T08:01:01;2.17;;;1.60;;
12129;SDS011;6128;59.340;18.040;2023-08-06T08:03:28;3.10;;;1.50;;
12129;SDS011;6128;59.340;18.040;2023-08-06T08:05:56;3.40;;;1.70;;
12129;SDS011;6128;59.340;18.040;2023-08-06T08:08:23;1.77;;;1.63;;
12129;SDS011;6128;59.340;18.040;2023-08-06T08:10:50;1.55;;;1.20;;
12129;SDS011;6128;59.340;18.040;2023-08-06T08:13:18;2.35;;;1.55;;
12129;SDS011;6128;59.340;18.040;2023-08-06T08:15:45;3.25;;;1.60;;
12129;SDS011;6128;59.340;18.040;2023-08-06T08:18:12;4.65;;;1.83;;
12129;SDS011;6128;59.340;18.040;2023-08-06T08:20:39;2.90;;;1.70;;
12129;SDS011;6128;59.340;18.040;2023-08-06T08:23:08;4.85;;;2.15;;
12129;SDS011;6128;59.340;18.040;2023-08-06T08:25:34;3.50;;;1.73;;
12129;SDS011;6128;59.340;18.040;2023-08-06T08:28:02;2.08;;;1.48;;
12129;SDS011;6128;59.340;18.040;2023-08-06T08:30:29;3.45;;;1.70;;
12129;SDS011;6128;59.340;18.040;2023-08-06T08:32:56;2.25;;;1.30;;
12129;SDS011;6128;59.340;18.040;2023-08-06T08:35:23;2.10;;;1.30;;
12129;SDS011;6128;59.340;18.040;2023-08-06T08:37:50;2.45;;;1.55;;
12129;SDS011;6128;59.340;18.040;2023-08-06T08:40:19;3.53;;;1.83;;
12129;SDS011;6128;59.340;18.040;2023-08-06T08:42:49;3.45;;;1.65;;
12129;SDS011;6128;59.340;18.040;2023-08-06T08:45:17;3.90;;;1.90;;
12129;SDS011;6128;59.340;18.040;2023-08-06T08:47:48;3.70;;;1.58;;
12129;SDS011;6128;59.340;18.040;2023-08-06T08:50:15;3.20;;;1.80;;
12129;SDS011;6128;59.340;18.040;2023-08-06T08:52:44;3.03;;;1.80;;
12129;SDS011;6128;59.340;18.040;2023-08-06T08:55:14;3.35;;;1.63;;
12129;SDS011;6128;59.340;18.040;2023-08-06T08:57:43;3.95;;;2.30;;
12129;SDS011;6128;59.340;18.040;2023-08-06T09:00:10;3.30;;;1.67;;
12129;SDS011;6128;59.340;18.040;2023-08-06T09:02:39;3.53;;;1.60;;
12129;SDS011;6128;59.340;18.040;2023-08-06T09:05:08;2.95;;;1.95;;
12129;SDS011;6128;59.340;18.040;2023-08-06T09:07:38;3.10;;;2.23;;
12129;SDS011;6128;59.340;18.040;2023-08-06T09:10:08;2.58;;;2.17;;
12129;SDS011;6128;59.340;18.040;2023-08-06T09:12:37;3.78;;;1.80;;
12129;SDS011;6128;59.340;18.040;2023-08-06T09:15:06;2.88;;;1.95;;
12129;SDS011;6128;59.340;18.040;2023-08-06T09:17:34;4.03;;;2.00;;
12129;SDS011;6128;59.340;18.040;2023-08-06T09:20:09;3.17;;;1.65;;
12129;SDS011;6128;59.340;18.040;2023-08-06T09:22:37;3.15;;;1.80;;
12129;SDS011;6128;59.340;18.040;2023-08-06T09:25:04;3.17;;;1.80;;
12129;SDS011;6128;59.340;18.040;2023-08-06T09:27:35;3.10;;;1.95;;
12129;SDS011;6128;59.340;18.040;2023-08-06T09:30:02;2.72;;;1.58;;
12129;SDS011;6128;59.340;18.040;2023-08-06T09:32:40;2.88;;;2.25;;
12129;SDS011;6128;59.340;18.040;2023-08-06T09:35:15;4.18;;;2.80;;
12129;SDS011;6128;59.340;18.040;2023-08-06T09:37:42;3.40;;;2.17;;
12129;SDS011;6128;59.340;18.040;2023-08-06T09:40:24;3.70;;;2.37;;
12129;SDS011;6128;59.340;18.040;2023-08-06T09:42:52;4.47;;;1.80;;
12129;SDS011;6128;59.340;18.040;2023-08-06T09:45:20;3.40;;;2.07;;
12129;SDS011;6128;59.340;18.040;2023-08-06T09:47:49;2.60;;;1.70;;
12129;SDS011;6128;59.340;18.040;2023-08-06T09:50:17;3.38;;;1.90;;
12129;SDS011;6128;59.340;18.040;2023-08-06T09:52:44;3.97;;;2.30;;
12129;SDS011;6128;59.340;18.040;2023-08-06T09:55:13;3.47;;;2.13;;
12129;SDS011;6128;59.340;18.040;2023-08-06T09:57:41;4.37;;;1.87;;
12129;SDS011;6128;59.340;18.040;2023-08-06T10:00:09;4.07;;;1.90;;
12129;SDS011;6128;59.340;18.040;2023-08-06T10:02:37;2.97;;;1.73;;
12129;SDS011;6128;59.340;18.040;2023-08-06T10:05:06;4.00;;;1.87;;
12129;SDS011;6128;59.340;18.040;2023-08-06T10:07:34;3.60;;;1.70;;
12129;SDS011;6128;59.340;18.040;2023-08-06T10:10:04;4.10;;;2.00;;
12129;SDS011;6128;59.340;18.040;2023-08-06T10:12:32;3.07;;;1.80;;
12129;SDS011;6128;59.340;18.040;2023-08-06T10:15:03;3.07;;;1.70;;
12129;SDS011;6128;59.340;18.040;2023-08-06T10:17:34;2.83;;;1.60;;
12129;SDS011;6128;59.340;18.040;2023-08-06T10:20:03;3.03;;;1.90;;
12129;SDS011;6128;59.340;18.040;2023-08-06T10:22:34;4.47;;;1.90;;
12129;SDS011;6128;59.340;18.040;2023-08-06T10:25:02;2.63;;;1.97;;
12129;SDS011;6128;59.340;18.040;2023-08-06T10:27:31;3.87;;;1.93;;
12129;SDS011;6128;59.340;18.040;2023-08-06T10:32:52;3.17;;;1.90;;
12129;SDS011;6128;59.340;18.040;2023-08-06T10:35:30;4.67;;;2.00;;
12129;SDS011;6128;59.340;18.040;2023-08-06T10:37:58;4.43;;;2.57;;
12129;SDS011;6128;59.340;18.040;2023-08-06T10:40:29;2.93;;;2.00;;
12129;SDS011;6128;59.340;18.040;2023-08-06T10:42:58;5.50;;;2.20;;
12129;SDS011;6128;59.340;18.040;2023-08-06T10:45:26;3.70;;;1.90;;
12129;SDS011;6128;59.340;18.040;2023-08-06T10:47:54;4.47;;;2.27;;
12129;SDS011;6128;59.340;18.040;2023-08-06T10:50:22;3.43;;;2.10;;
12129;SDS011;6128;59.340;18.040;2023-08-06T10:52:51;3.97;;;2.20;;
12129;SDS011;6128;59.340;18.040;2023-08-06T10:55:22;5.43;;;2.30;;
12129;SDS011;6128;59.340;18.040;2023-08-06T10:57:50;2.77;;;2.17;;
12129;SDS011;6128;59.340;18.040;2023-08-06T11:00:17;3.47;;;2.27;;
12129;SDS011;6128;59.340;18.040;2023-08-06T11:02:44;4.50;;;2.20;;
12129;SDS011;6128;59.340;18.040;2023-08-06T11:05:13;5.20;;;2.47;;
12129;SDS011;6128;59.340;18.040;2023-08-06T11:07:40;3.67;;;2.10;;
12129;SDS011;6128;59.340;18.040;2023-08-06T11:10:10;4.37;;;2.33;;
12129;SDS011;6128;59.340;18.040;2023-08-06T11:12:38;4.13;;;2.20;;
12129;SDS011;6128;59.340;18.040;2023-08-06T11:15:06;2.73;;;2.30;;
12129;SDS011;6128;59.340;18.040;2023-08-06T11:17:34;4.47;;;2.53;;
12129;SDS011;6128;59.340;18.040;2023-08-06T11:20:02;5.53;;;2.77;;
12129;SDS011;6128;59.340;18.040;2023-08-06T11:22:30;5.13;;;2.70;;
12129;SDS011;6128;59.340;18.040;2023-08-06T11:24:58;5.07;;;2.97;;
12129;SDS011;6128;59.340;18.040;2023-08-06T11:27:27;3.90;;;2.80;;
12129;SDS011;6128;59.340;18.040;2023-08-06T11:29:55;4.17;;;2.53;;
12129;SDS011;6128;59.340;18.040;2023-08-06T11:32:22;3.97;;;2.90;;
12129;SDS011;6128;59.340;18.040;2023-08-06T11:34:49;3.43;;;2.97;;
12129;SDS011;6128;59.340;18.040;2023-08-06T11:37:17;3.93;;;3.00;;
12129;SDS011;6128;59.340;18.040;2023-08-06T11:39:49;5.83;;;3.33;;
12129;SDS011;6128;59.340;18.040;2023-08-06T11:42:16;4.40;;;3.27;;
12129;SDS011;6128;59.340;18.040;2023-08-06T11:44:45;5.50;;;4.13;;
12129;SDS011;6128;59.340;18.040;2023-08-06T11:47:14;5.57;;;3.07;;
12129;SDS011;6128;59.340;18.040;2023-08-06T11:49:43;3.13;;;2.73;;
12129;SDS011;6128;59.340;18.040;2023-08-06T11:52:15;5.23;;;3.73;;
12129;SDS011;6128;59.340;18.040;2023-08-06T11:54:44;5.90;;;3.40;;
12129;SDS011;6128;59.340;18.040;2023-08-06T11:57:26;4.40;;;3.37;;
12129;SDS011;6128;59.340;18.040;2023-08-06T11:59:59;4.30;;;3.33;;
12129;SDS011;6128;59.340;18.040;2023-08-06T12:02:32;5.40;;;3.30;;
12129;SDS011;6128;59.340;18.040;2023-08-06T12:05:02;5.97;;;3.47;;
12129;SDS011;6128;59.340;18.040;2023-08-06T12:07:31;4.40;;;3.70;;
12129;SDS011;6128;59.340;18.040;2023-08-06T12:09:59;6.43;;;4.17;;
12129;SDS011;6128;59.340;18.040;2023-08-06T12:12:29;5.80;;;3.80;;
12129;SDS011;6128;59.340;18.040;2023-08-06T12:14:56;3.97;;;3.57;;
12129;SDS011;6128;59.340;18.040;2023-08-06T12:17:27;5.83;;;4.10;;
12129;SDS011;6128;59.340;18.040;2023-08-06T12:19:54;5.43;;;4.10;;
12129;SDS011;6128;59.340;18.040;2023-08-06T12:22:21;5.17;;;3.80;;
12129;SDS011;6128;59.340;18.040;2023-08-06T12:24:49;4.77;;;3.57;;
12129;SDS011;6128;59.340;18.040;2023-08-06T12:27:16;4.90;;;4.40;;
12129;SDS011;6128;59.340;18.040;2023-08-06T12:29:44;6.17;;;4.63;;
12129;SDS011;6128;59.340;18.040;2023-08-06T12:32:12;4.53;;;4.13;;
12129;SDS011;6128;59.340;18.040;2023-08-06T12:34:41;5.90;;;4.50;;
12129;SDS011;6128;59.340;18.040;2023-08-06T12:37:09;5.27;;;4.40;;
12129;SDS011;6128;59.340;18.040;2023-08-06T12:39:36;4.80;;;4.40;;
12129;SDS011;6128;59.340;18.040;2023-08-06T12:42:07;4.90;;;4.40;;
12129;SDS011;6128;59.340;18.040;2023-08-06T12:44:35;4.57;;;4.13;;
12129;SDS011;6128;59.340;18.040;2023-08-06T12:47:02;4.70;;;4.20;;
12129;SDS011;6128;59.340;18.040;2023-08-06T12:49:29;8.97;;;4.43;;
12129;SDS011;6128;59.340;18.040;2023-08-06T12:51:58;4.77;;;4.37;;
12129;SDS011;6128;59.340;18.040;2023-08-06T12:54:26;4.90;;;4.40;;
12129;SDS011;6128;59.340;18.040;2023-08-06T12:56:54;5.63;;;4.70;;
12129;SDS011;6128;59.340;18.040;2023-08-06T12:59:22;4.57;;;4.17;;
12129;SDS011;6128;59.340;18.040;2023-08-06T13:01:49;6.00;;;5.00;;
12129;SDS011;6128;59.340;18.040;2023-08-06T13:04:16;5.57;;;4.97;;
12129;SDS011;6128;59.340;18.040;2023-08-06T13:06:43;5.93;;;4.30;;
12129;SDS011;6128;59.340;18.040;2023-08-06T13:09:14;4.93;;;4.53;;
12129;SDS011;6128;59.340;18.040;2023-08-06T13:11:42;5.10;;;4.30;;
12129;SDS011;6128;59.340;18.040;2023-08-06T13:14:12;4.50;;;4.10;;
12129;SDS011;6128;59.340;18.040;2023-08-06T13:16:40;5.73;;;4.10;;
12129;SDS011;6128;59.340;18.040;2023-08-06T13:19:09;4.37;;;3.97;;
12129;SDS011;6128;59.340;18.040;2023-08-06T13:21:57;5.20;;;4.27;;
12129;SDS011;6128;59.340;18.040;2023-08-06T13:24:28;4.97;;;4.47;;
12129;SDS011;6128;59.340;18.040;2023-08-06T13:26:55;5.60;;;4.73;;
12129;SDS011;6128;59.340;18.040;2023-08-06T13:29:22;4.90;;;4.47;;
12129;SDS011;6128;59.340;18.040;2023-08-06T13:31:49;5.33;;;4.60;;
12129;SDS011;6128;59.340;18.040;2023-08-06T13:34:16;4.97;;;4.07;;
12129;SDS011;6128;59.340;18.040;2023-08-06T13:36:43;6.70;;;5.27;;
12129;SDS011;6128;59.340;18.040;2023-08-06T13:39:11;5.67;;;5.27;;
12129;SDS011;6128;59.340;18.040;2023-08-06T13:41:43;5.13;;;4.70;;
12129;SDS011;6128;59.340;18.040;2023-08-06T13:44:10;5.67;;;5.17;;
12129;SDS011;6128;59.340;18.040;2023-08-06T13:46:39;5.93;;;5.43;;
12129;SDS011;6128;59.340;18.040;2023-08-06T13:49:07;6.40;;;5.90;;
12129;SDS011;6128;59.340;18.040;2023-08-06T13:51:34;6.33;;;5.77;;
12129;SDS011;6128;59.340;18.040;2023-08-06T13:54:02;6.73;;;5.80;;
12129;SDS011;6128;59.340;18.040;2023-08-06T13:56:29;6.47;;;5.53;;
12129;SDS011;6128;59.340;18.040;2023-08-06T13:58:57;5.83;;;5.30;;
12129;SDS011;6128;59.340;18.040;2023-08-06T14:01:25;6.03;;;5.23;;
12129;SDS011;6128;59.340;18.040;2023-08-06T14:03:52;6.20;;;5.27;;
12129;SDS011;6128;59.340;18.040;2023-08-06T14:06:21;6.23;;;5.23;;
12129;SDS011;6128;59.340;18.040;2023-08-06T14:08:48;6.00;;;5.50;;
12129;SDS011;6128;59.340;18.040;2023-08-06T14:11:15;6.53;;;5.63;;
12129;SDS011;6128;59.340;18.040;2023-08-06T14:13:43;6.00;;;5.40;;
12129;SDS011;6128;59.340;18.040;2023-08-06T14:16:12;6.13;;;5.63;;
12129;SDS011;6128;59.340;18.040;2023-08-06T14:18:39;5.63;;;5.13;;
12129;SDS011;6128;59.340;18.040;2023-08-06T14:21:06;6.00;;;5.47;;
12129;SDS011;6128;59.340;18.040;2023-08-06T14:23:33;6.53;;;5.20;;
12129;SDS011;6128;59.340;18.040;2023-08-06T14:26:00;6.00;;;5.17;;
12129;SDS011;6128;59.340;18.040;2023-08-06T14:28:28;7.33;;;5.97;;
12129;SDS011;6128;59.340;18.040;2023-08-06T14:30:55;5.67;;;5.17;;
12129;SDS011;6128;59.340;18.040;2023-08-06T14:33:24;5.43;;;4.90;;
12129;SDS011;6128;59.340;18.040;2023-08-06T14:35:51;7.60;;;5.83;;
12129;SDS011;6128;59.340;18.040;2023-08-06T14:38:18;5.87;;;5.10;;
12129;SDS011;6128;59.340;18.040;2023-08-06T14:40:45;5.97;;;5.37;;
12129;SDS011;6128;59.340;18.040;2023-08-06T14:43:12;6.10;;;5.47;;
12129;SDS011;6128;59.340;18.040;2023-08-06T14:45:39;5.80;;;5.30;;
12129;SDS011;6128;59.340;18.040;2023-08-06T14:48:06;6.10;;;5.50;;
12129;SDS011;6128;59.340;18.040;2023-08-06T14:50:35;7.40;;;5.67;;
12129;SDS011;6128;59.340;18.040;2023-08-06T14:53:04;6.07;;;5.03;;
12129;SDS011;6128;59.340;18.040;2023-08-06T14:55:31;5.70;;;4.63;;
12129;SDS011;6128;59.340;18.040;2023-08-06T14:58:00;5.70;;;5.17;;
12129;SDS011;6128;59.340;18.040;2023-08-06T15:00:27;5.70;;;4.87;;